sensor_id;sensor_type;location;lat;lon;timestamp;temperature;humidity
10417;DHT22;62605;49.432;8.680;2022-09-09T00:01:03;16.70;99.90
10417;DHT22;62605;49.432;8.680;2022-09-09T00:03:38;16.70;99.90
10417;DHT22;62605;49.432;8.680;2022-09-09T00:06:13;16.60;99.90
10417;DHT22;62605;49.432;8.680;2022-09-09T00:08:51;16.70;99.90
10417;DHT22;62605;49.432;8.680;2022-09-09T00:11:26;16.60;99.90
10417;DHT22;62605;49.432;8.680;2022-09-09T00:13:57;16.70;99.90
10417;DHT22;62605;49.432;8.680;2022-09-09T00:16:28;16.60;99.90
10417;DHT22;62605;49.432;8.680;2022-09-09T00:19:01;16.60;99.90
10417;DHT22;62605;49.432;8.680;2022-09-09T00:21:33;16.90;99.90
10417;DHT22;62605;49.432;8.680;2022-09-09T00:24:09;17.00;99.90
10417;DHT22;62605;49.432;8.680;2022-09-09T00:26:43;17.00;99.90
10417;DHT22;62605;49.432;8.680;2022-09-09T00:29:18;17.10;99.90
10417;DHT22;62605;49.432;8.680;2022-09-09T00:31:48;17.20;99.90
10417;DHT22;62605;49.432;8.680;2022-09-09T00:34:19;17.40;99.90
10417;DHT22;62605;49.432;8.680;2022-09-09T00:36:50;17.50;99.90
10417;DHT22;62605;49.432;8.680;2022-09-09T00:39:24;17.60;99.90
10417;DHT22;62605;49.432;8.680;2022-09-09T00:42:02;17.60;99.90
10417;DHT22;62605;49.432;8.680;2022-09-09T00:44:37;17.70;99.90
10417;DHT22;62605;49.432;8.680;2022-09-09T00:47:16;17.80;99.90
10417;DHT22;62605;49.432;8.680;2022-09-09T00:49:54;17.80;99.90
10417;DHT22;62605;49.432;8.680;2022-09-09T00:52:32;17.70;99.90
10417;DHT22;62605;49.432;8.680;2022-09-09T00:55:07;17.70;99.90
10417;DHT22;62605;49.432;8.680;2022-09-09T00:57:38;17.60;99.90
10417;DHT22;62605;49.432;8.680;2022-09-09T01:00:22;17.70;99.90
10417;DHT22;62605;49.432;8.680;2022-09-09T01:02:57;17.80;99.90
10417;DHT22;62605;49.432;8.680;2022-09-09T01:05:34;17.70;99.90
10417;DHT22;62605;49.432;8.680;2022-09-09T01:08:24;17.90;99.90
10417;DHT22;62605;49.432;8.680;2022-09-09T01:10:56;17.90;99.90
10417;DHT22;62605;49.432;8.680;2022-09-09T01:13:26;17.90;99.90
10417;DHT22;62605;49.432;8.680;2022-09-09T01:15:57;17.90;99.90
10417;DHT22;62605;49.432;8.680;2022-09-09T01:18:29;17.80;99.90
10417;DHT22;62605;49.432;8.680;2022-09-09T01:21:06;17.80;99.90
10417;DHT22;62605;49.432;8.680;2022-09-09T01:23:49;17.80;99.90
10417;DHT22;62605;49.432;8.680;2022-09-09T01:26:23;17.80;99.90
10417;DHT22;62605;49.432;8.680;2022-09-09T01:28:53;17.80;99.90
10417;DHT22;62605;49.432;8.680;2022-09-09T01:31:23;17.80;99.90
10417;DHT22;62605;49.432;8.680;2022-09-09T01:33:52;17.80;99.90
10417;DHT22;62605;49.432;8.680;2022-09-09T01:36:26;17.70;99.90
10417;DHT22;62605;49.432;8.680;2022-09-09T01:38:56;17.70;99.90
10417;DHT22;62605;49.432;8.680;2022-09-09T01:41:24;17.70;99.90
10417;DHT22;62605;49.432;8.680;2022-09-09T01:43:53;17.70;99.90
10417;DHT22;62605;49.432;8.680;2022-09-09T01:46:21;17.60;99.90
10417;DHT22;62605;49.432;8.680;2022-09-09T01:48:50;17.50;99.90
10417;DHT22;62605;49.432;8.680;2022-09-09T01:51:18;17.60;99.90
10417;DHT22;62605;49.432;8.680;2022-09-09T01:53:45;17.50;99.90
10417;DHT22;62605;49.432;8.680;2022-09-09T01:56:21;17.50;99.90
10417;DHT22;62605;49.432;8.680;2022-09-09T01:59:07;17.40;99.90
10417;DHT22;62605;49.432;8.680;2022-09-09T02:01:45;17.50;99.90
10417;DHT22;62605;49.432;8.680;2022-09-09T02:04:24;17.50;99.90
10417;DHT22;62605;49.432;8.680;2022-09-09T02:06:56;17.50;99.90
10417;DHT22;62605;49.432;8.680;2022-09-09T02:09:24;17.50;99.90
10417;DHT22;62605;49.432;8.680;2022-09-09T02:11:57;17.40;99.90
10417;DHT22;62605;49.432;8.680;2022-09-09T02:14:30;17.40;99.90
10417;DHT22;62605;49.432;8.680;2022-09-09T02:17:05;17.50;99.90
10417;DHT22;62605;49.432;8.680;2022-09-09T02:19:36;17.40;99.90
10417;DHT22;62605;49.432;8.680;2022-09-09T02:22:04;17.50;99.90
10417;DHT22;62605;49.432;8.680;2022-09-09T02:24:35;17.40;99.90
10417;DHT22;62605;49.432;8.680;2022-09-09T02:27:05;17.40;99.90
10417;DHT22;62605;49.432;8.680;2022-09-09T02:29:39;17.40;99.90
10417;DHT22;62605;49.432;8.680;2022-09-09T02:32:10;17.30;99.90
10417;DHT22;62605;49.432;8.680;2022-09-09T02:34:41;17.30;99.90
10417;DHT22;62605;49.432;8.680;2022-09-09T02:37:10;17.20;99.90
10417;DHT22;62605;49.432;8.680;2022-09-09T02:39:39;17.20;99.90
10417;DHT22;62605;49.432;8.680;2022-09-09T02:42:06;17.20;99.90
10417;DHT22;62605;49.432;8.680;2022-09-09T02:44:35;17.10;99.90
10417;DHT22;62605;49.432;8.680;2022-09-09T02:47:16;17.10;99.90
10417;DHT22;62605;49.432;8.680;2022-09-09T02:49:56;17.10;99.90
10417;DHT22;62605;49.432;8.680;2022-09-09T02:52:35;17.00;99.90
10417;DHT22;62605;49.432;8.680;2022-09-09T02:55:11;17.00;99.90
10417;DHT22;62605;49.432;8.680;2022-09-09T02:57:42;16.90;99.90
10417;DHT22;62605;49.432;8.680;2022-09-09T03:00:13;17.00;99.90
10417;DHT22;62605;49.432;8.680;2022-09-09T03:02:40;17.00;99.90
10417;DHT22;62605;49.432;8.680;2022-09-09T03:05:08;16.90;99.90
10417;DHT22;62605;49.432;8.680;2022-09-09T03:07:35;16.90;99.90
10417;DHT22;62605;49.432;8.680;2022-09-09T03:10:02;16.80;99.90
10417;DHT22;62605;49.432;8.680;2022-09-09T03:12:29;16.80;99.90
10417;DHT22;62605;49.432;8.680;2022-09-09T03:14:56;16.70;99.90
10417;DHT22;62605;49.432;8.680;2022-09-09T03:17:25;16.60;99.90
10417;DHT22;62605;49.432;8.680;2022-09-09T03:19:53;16.70;99.90
10417;DHT22;62605;49.432;8.680;2022-09-09T03:22:21;16.70;99.90
10417;DHT22;62605;49.432;8.680;2022-09-09T03:24:48;16.60;99.90
10417;DHT22;62605;49.432;8.680;2022-09-09T03:27:16;16.60;99.90
10417;DHT22;62605;49.432;8.680;2022-09-09T03:29:45;16.60;99.90
10417;DHT22;62605;49.432;8.680;2022-09-09T03:32:12;16.50;99.90
10417;DHT22;62605;49.432;8.680;2022-09-09T03:34:40;16.60;99.90
10417;DHT22;62605;49.432;8.680;2022-09-09T03:37:07;16.60;99.90
10417;DHT22;62605;49.432;8.680;2022-09-09T03:39:34;16.60;99.90
10417;DHT22;62605;49.432;8.680;2022-09-09T03:42:01;16.80;99.90
10417;DHT22;62605;49.432;8.680;2022-09-09T03:44:29;16.60;99.90
10417;DHT22;62605;49.432;8.680;2022-09-09T03:46:57;16.70;99.90
10417;DHT22;62605;49.432;8.680;2022-09-09T03:49:25;16.70;99.90
10417;DHT22;62605;49.432;8.680;2022-09-09T03:51:56;16.60;99.90
10417;DHT22;62605;49.432;8.680;2022-09-09T03:54:24;16.60;99.90
10417;DHT22;62605;49.432;8.680;2022-09-09T03:56:51;16.70;99.90
10417;DHT22;62605;49.432;8.680;2022-09-09T03:59:18;16.80;99.90
10417;DHT22;62605;49.432;8.680;2022-09-09T04:01:46;16.70;99.90
10417;DHT22;62605;49.432;8.680;2022-09-09T04:04:14;16.60;99.90
10417;DHT22;62605;49.432;8.680;2022-09-09T04:06:41;16.60;99.90
10417;DHT22;62605;49.432;8.680;2022-09-09T04:09:09;16.70;99.90
10417;DHT22;62605;49.432;8.680;2022-09-09T04:11:36;16.70;99.90
10417;DHT22;62605;49.432;8.680;2022-09-09T04:14:03;16.60;99.90
10417;DHT22;62605;49.432;8.680;2022-09-09T04:16:31;16.50;99.90
10417;DHT22;62605;49.432;8.680;2022-09-09T04:18:58;16.60;99.90
10417;DHT22;62605;49.432;8.680;2022-09-09T04:21:27;16.70;99.90
10417;DHT22;62605;49.432;8.680;2022-09-09T04:23:54;16.50;99.90
10417;DHT22;62605;49.432;8.680;2022-09-09T04:26:22;16.50;99.90
10417;DHT22;62605;49.432;8.680;2022-09-09T04:28:50;16.60;99.90
10417;DHT22;62605;49.432;8.680;2022-09-09T04:31:19;16.60;99.90
10417;DHT22;62605;49.432;8.680;2022-09-09T04:33:48;16.60;99.90
10417;DHT22;62605;49.432;8.680;2022-09-09T04:36:15;16.50;99.90
10417;DHT22;62605;49.432;8.680;2022-09-09T04:38:43;16.60;99.90
10417;DHT22;62605;49.432;8.680;2022-09-09T04:41:12;16.60;99.90
10417;DHT22;62605;49.432;8.680;2022-09-09T04:43:41;16.50;99.90
10417;DHT22;62605;49.432;8.680;2022-09-09T04:46:08;16.40;99.90
10417;DHT22;62605;49.432;8.680;2022-09-09T04:48:35;16.50;99.90
10417;DHT22;62605;49.432;8.680;2022-09-09T04:51:03;16.60;99.90
10417;DHT22;62605;49.432;8.680;2022-09-09T04:53:31;16.50;99.90
10417;DHT22;62605;49.432;8.680;2022-09-09T04:56:04;16.40;99.90
10417;DHT22;62605;49.432;8.680;2022-09-09T04:58:31;16.40;99.90
10417;DHT22;62605;49.432;8.680;2022-09-09T05:01:08;16.60;99.90
10417;DHT22;62605;49.432;8.680;2022-09-09T05:03:35;16.50;99.90
10417;DHT22;62605;49.432;8.680;2022-09-09T05:06:07;16.40;99.90
10417;DHT22;62605;49.432;8.680;2022-09-09T05:08:36;16.40;99.90
10417;DHT22;62605;49.432;8.680;2022-09-09T05:11:03;16.50;99.90
10417;DHT22;62605;49.432;8.680;2022-09-09T05:13:31;16.50;99.90
10417;DHT22;62605;49.432;8.680;2022-09-09T05:15:58;16.60;99.90
10417;DHT22;62605;49.432;8.680;2022-09-09T05:18:26;16.50;99.90
10417;DHT22;62605;49.432;8.680;2022-09-09T05:21:00;16.50;99.90
10417;DHT22;62605;49.432;8.680;2022-09-09T05:23:27;16.60;99.90
10417;DHT22;62605;49.432;8.680;2022-09-09T05:25:57;16.50;99.90
10417;DHT22;62605;49.432;8.680;2022-09-09T05:28:25;16.60;99.90
10417;DHT22;62605;49.432;8.680;2022-09-09T05:30:56;16.60;99.90
10417;DHT22;62605;49.432;8.680;2022-09-09T05:33:25;16.70;99.90
10417;DHT22;62605;49.432;8.680;2022-09-09T05:36:00;16.70;99.90
10417;DHT22;62605;49.432;8.680;2022-09-09T05:38:28;16.70;99.90
10417;DHT22;62605;49.432;8.680;2022-09-09T05:40:55;16.90;99.90
10417;DHT22;62605;49.432;8.680;2022-09-09T05:43:23;16.90;99.90
10417;DHT22;62605;49.432;8.680;2022-09-09T05:45:59;16.90;99.90
10417;DHT22;62605;49.432;8.680;2022-09-09T05:48:29;16.80;99.90
10417;DHT22;62605;49.432;8.680;2022-09-09T05:50:57;16.90;99.90
10417;DHT22;62605;49.432;8.680;2022-09-09T05:53:25;16.90;99.90
10417;DHT22;62605;49.432;8.680;2022-09-09T05:55:59;17.00;99.90
10417;DHT22;62605;49.432;8.680;2022-09-09T05:58:27;17.10;99.90
10417;DHT22;62605;49.432;8.680;2022-09-09T06:01:00;17.20;99.90
10417;DHT22;62605;49.432;8.680;2022-09-09T06:03:29;17.30;99.90
10417;DHT22;62605;49.432;8.680;2022-09-09T06:05:58;17.10;99.90
10417;DHT22;62605;49.432;8.680;2022-09-09T06:08:25;17.00;99.90
10417;DHT22;62605;49.432;8.680;2022-09-09T06:10:52;16.80;99.90
10417;DHT22;62605;49.432;8.680;2022-09-09T06:13:19;16.60;99.90
10417;DHT22;62605;49.432;8.680;2022-09-09T06:15:50;16.60;99.90
10417;DHT22;62605;49.432;8.680;2022-09-09T06:18:17;16.50;99.90
10417;DHT22;62605;49.432;8.680;2022-09-09T06:20:55;16.50;99.90
10417;DHT22;62605;49.432;8.680;2022-09-09T06:23:22;16.60;99.90
10417;DHT22;62605;49.432;8.680;2022-09-09T06:25:49;16.70;99.90
10417;DHT22;62605;49.432;8.680;2022-09-09T06:28:17;16.90;99.90
10417;DHT22;62605;49.432;8.680;2022-09-09T06:30:44;17.00;99.90
10417;DHT22;62605;49.432;8.680;2022-09-09T06:33:12;17.10;99.90
10417;DHT22;62605;49.432;8.680;2022-09-09T06:35:40;17.10;99.90
10417;DHT22;62605;49.432;8.680;2022-09-09T06:38:09;17.10;99.90
10417;DHT22;62605;49.432;8.680;2022-09-09T06:40:36;17.10;99.90
10417;DHT22;62605;49.432;8.680;2022-09-09T06:43:03;17.20;99.90
10417;DHT22;62605;49.432;8.680;2022-09-09T06:45:30;17.30;99.90
10417;DHT22;62605;49.432;8.680;2022-09-09T06:47:58;17.30;99.90
10417;DHT22;62605;49.432;8.680;2022-09-09T06:50:25;17.30;99.90
10417;DHT22;62605;49.432;8.680;2022-09-09T06:52:52;17.30;99.90
10417;DHT22;62605;49.432;8.680;2022-09-09T06:55:20;17.40;99.90
10417;DHT22;62605;49.432;8.680;2022-09-09T06:57:47;17.40;99.90
10417;DHT22;62605;49.432;8.680;2022-09-09T07:00:14;17.50;99.90
10417;DHT22;62605;49.432;8.680;2022-09-09T07:02:42;17.60;99.90
10417;DHT22;62605;49.432;8.680;2022-09-09T07:05:10;17.60;99.90
10417;DHT22;62605;49.432;8.680;2022-09-09T07:07:37;17.70;99.90
10417;DHT22;62605;49.432;8.680;2022-09-09T07:10:05;17.80;99.90
10417;DHT22;62605;49.432;8.680;2022-09-09T07:12:34;18.00;99.90
10417;DHT22;62605;49.432;8.680;2022-09-09T07:15:01;17.90;99.90
10417;DHT22;62605;49.432;8.680;2022-09-09T07:17:28;17.90;99.90
10417;DHT22;62605;49.432;8.680;2022-09-09T07:19:55;17.80;99.90
10417;DHT22;62605;49.432;8.680;2022-09-09T07:22:22;17.80;99.90
10417;DHT22;62605;49.432;8.680;2022-09-09T07:24:50;17.90;99.90
10417;DHT22;62605;49.432;8.680;2022-09-09T07:27:17;17.90;99.90
10417;DHT22;62605;49.432;8.680;2022-09-09T07:29:46;18.10;99.90
10417;DHT22;62605;49.432;8.680;2022-09-09T07:32:13;18.20;99.90
10417;DHT22;62605;49.432;8.680;2022-09-09T07:34:40;18.10;99.90
10417;DHT22;62605;49.432;8.680;2022-09-09T07:37:08;18.10;99.90
10417;DHT22;62605;49.432;8.680;2022-09-09T07:39:37;18.20;99.90
10417;DHT22;62605;49.432;8.680;2022-09-09T07:42:04;18.20;99.90
10417;DHT22;62605;49.432;8.680;2022-09-09T07:44:32;18.30;99.90
10417;DHT22;62605;49.432;8.680;2022-09-09T07:47:02;18.60;99.90
10417;DHT22;62605;49.432;8.680;2022-09-09T07:49:29;18.60;99.90
10417;DHT22;62605;49.432;8.680;2022-09-09T07:51:57;18.80;99.90
10417;DHT22;62605;49.432;8.680;2022-09-09T07:54:24;18.90;99.90
10417;DHT22;62605;49.432;8.680;2022-09-09T07:56:52;18.80;99.90
10417;DHT22;62605;49.432;8.680;2022-09-09T07:59:19;18.80;99.90
10417;DHT22;62605;49.432;8.680;2022-09-09T08:01:48;18.90;99.90
10417;DHT22;62605;49.432;8.680;2022-09-09T08:04:18;18.90;99.90
10417;DHT22;62605;49.432;8.680;2022-09-09T08:06:47;18.90;99.90
10417;DHT22;62605;49.432;8.680;2022-09-09T08:09:14;19.10;99.90
10417;DHT22;62605;49.432;8.680;2022-09-09T08:11:42;19.30;99.90
10417;DHT22;62605;49.432;8.680;2022-09-09T08:14:10;19.10;99.90
10417;DHT22;62605;49.432;8.680;2022-09-09T08:16:40;19.30;99.90
10417;DHT22;62605;49.432;8.680;2022-09-09T08:19:07;19.70;99.90
10417;DHT22;62605;49.432;8.680;2022-09-09T08:21:38;19.60;99.90
10417;DHT22;62605;49.432;8.680;2022-09-09T08:24:07;19.70;99.90
10417;DHT22;62605;49.432;8.680;2022-09-09T08:26:37;19.80;99.90
10417;DHT22;62605;49.432;8.680;2022-09-09T08:29:06;19.60;99.90
10417;DHT22;62605;49.432;8.680;2022-09-09T08:31:35;19.50;99.90
10417;DHT22;62605;49.432;8.680;2022-09-09T08:34:05;19.50;99.90
10417;DHT22;62605;49.432;8.680;2022-09-09T08:36:34;19.40;99.90
10417;DHT22;62605;49.432;8.680;2022-09-09T08:39:04;19.40;99.90
10417;DHT22;62605;49.432;8.680;2022-09-09T08:41:56;19.20;99.90
10417;DHT22;62605;49.432;8.680;2022-09-09T08:44:34;19.20;99.90
10417;DHT22;62605;49.432;8.680;2022-09-09T08:47:10;19.10;99.90
10417;DHT22;62605;49.432;8.680;2022-09-09T08:49:58;18.80;99.90
10417;DHT22;62605;49.432;8.680;2022-09-09T08:52:30;18.60;99.90
10417;DHT22;62605;49.432;8.680;2022-09-09T08:55:18;18.50;99.90
10417;DHT22;62605;49.432;8.680;2022-09-09T08:57:49;18.40;99.90
10417;DHT22;62605;49.432;8.680;2022-09-09T09:00:17;18.50;99.90
10417;DHT22;62605;49.432;8.680;2022-09-09T09:02:51;18.70;99.90
10417;DHT22;62605;49.432;8.680;2022-09-09T09:05:28;18.90;99.90
10417;DHT22;62605;49.432;8.680;2022-09-09T09:08:03;19.10;99.90
10417;DHT22;62605;49.432;8.680;2022-09-09T09:10:45;19.50;99.90
10417;DHT22;62605;49.432;8.680;2022-09-09T09:13:19;19.70;99.90
10417;DHT22;62605;49.432;8.680;2022-09-09T09:15:52;19.70;99.90
10417;DHT22;62605;49.432;8.680;2022-09-09T09:18:22;19.70;99.90
10417;DHT22;62605;49.432;8.680;2022-09-09T09:20:59;19.70;99.90
10417;DHT22;62605;49.432;8.680;2022-09-09T09:23:31;19.50;99.90
10417;DHT22;62605;49.432;8.680;2022-09-09T09:26:06;19.30;99.90
10417;DHT22;62605;49.432;8.680;2022-09-09T09:28:35;19.50;99.90
10417;DHT22;62605;49.432;8.680;2022-09-09T09:31:05;19.60;99.90
10417;DHT22;62605;49.432;8.680;2022-09-09T09:33:37;19.70;99.90
10417;DHT22;62605;49.432;8.680;2022-09-09T09:36:07;20.10;99.90
10417;DHT22;62605;49.432;8.680;2022-09-09T09:38:35;20.50;99.90
10417;DHT22;62605;49.432;8.680;2022-09-09T09:41:04;20.30;99.90
10417;DHT22;62605;49.432;8.680;2022-09-09T09:43:33;20.20;99.90
10417;DHT22;62605;49.432;8.680;2022-09-09T09:46:03;19.70;99.90
10417;DHT22;62605;49.432;8.680;2022-09-09T09:48:31;19.70;99.90
10417;DHT22;62605;49.432;8.680;2022-09-09T09:51:01;20.10;99.90
10417;DHT22;62605;49.432;8.680;2022-09-09T09:53:32;20.40;99.90
10417;DHT22;62605;49.432;8.680;2022-09-09T09:56:01;20.30;99.90
10417;DHT22;62605;49.432;8.680;2022-09-09T09:58:32;20.50;99.90
10417;DHT22;62605;49.432;8.680;2022-09-09T10:01:00;20.60;99.90
10417;DHT22;62605;49.432;8.680;2022-09-09T10:03:29;20.70;99.90
10417;DHT22;62605;49.432;8.680;2022-09-09T10:05:56;20.60;99.90
10417;DHT22;62605;49.432;8.680;2022-09-09T10:08:24;20.40;99.90
10417;DHT22;62605;49.432;8.680;2022-09-09T10:11:02;20.20;99.90
10417;DHT22;62605;49.432;8.680;2022-09-09T10:13:38;20.00;99.90
10417;DHT22;62605;49.432;8.680;2022-09-09T10:16:17;19.90;99.90
10417;DHT22;62605;49.432;8.680;2022-09-09T10:18:58;20.10;99.90
10417;DHT22;62605;49.432;8.680;2022-09-09T10:21:49;19.80;99.90
10417;DHT22;62605;49.432;8.680;2022-09-09T10:24:38;19.80;99.90
10417;DHT22;62605;49.432;8.680;2022-09-09T10:27:14;19.70;99.90
10417;DHT22;62605;49.432;8.680;2022-09-09T10:29:57;19.70;99.90
10417;DHT22;62605;49.432;8.680;2022-09-09T10:32:40;20.00;99.90
10417;DHT22;62605;49.432;8.680;2022-09-09T10:35:19;20.30;99.90
10417;DHT22;62605;49.432;8.680;2022-09-09T10:38:11;20.40;99.90
10417;DHT22;62605;49.432;8.680;2022-09-09T10:40:43;20.50;99.90
10417;DHT22;62605;49.432;8.680;2022-09-09T10:43:25;20.50;99.90
10417;DHT22;62605;49.432;8.680;2022-09-09T10:46:08;20.70;99.90
10417;DHT22;62605;49.432;8.680;2022-09-09T10:49:00;21.10;99.90
10417;DHT22;62605;49.432;8.680;2022-09-09T10:51:37;21.30;99.90
10417;DHT22;62605;49.432;8.680;2022-09-09T10:54:17;21.30;99.90
10417;DHT22;62605;49.432;8.680;2022-09-09T10:56:51;21.10;99.90
10417;DHT22;62605;49.432;8.680;2022-09-09T10:59:25;21.20;99.90
10417;DHT22;62605;49.432;8.680;2022-09-09T11:01:58;21.00;99.90
10417;DHT22;62605;49.432;8.680;2022-09-09T11:04:29;21.10;99.90
10417;DHT22;62605;49.432;8.680;2022-09-09T11:07:08;21.20;99.90
10417;DHT22;62605;49.432;8.680;2022-09-09T11:09:39;21.50;99.90
10417;DHT22;62605;49.432;8.680;2022-09-09T11:12:10;21.50;99.90
10417;DHT22;62605;49.432;8.680;2022-09-09T11:14:41;21.70;99.90
10417;DHT22;62605;49.432;8.680;2022-09-09T11:17:14;21.60;99.90
10417;DHT22;62605;49.432;8.680;2022-09-09T11:19:44;21.50;99.90
10417;DHT22;62605;49.432;8.680;2022-09-09T11:22:21;21.40;99.90
10417;DHT22;62605;49.432;8.680;2022-09-09T11:24:54;21.20;99.90
10417;DHT22;62605;49.432;8.680;2022-09-09T11:27:27;21.50;99.90
10417;DHT22;62605;49.432;8.680;2022-09-09T11:30:13;21.70;99.90
10417;DHT22;62605;49.432;8.680;2022-09-09T11:36:19;21.50;99.90
10417;DHT22;62605;49.432;8.680;2022-09-09T11:38:52;21.40;99.90
10417;DHT22;62605;49.432;8.680;2022-09-09T11:41:23;21.80;99.90
10417;DHT22;62605;49.432;8.680;2022-09-09T11:43:51;22.10;99.90
10417;DHT22;62605;49.432;8.680;2022-09-09T11:46:21;21.70;99.90
10417;DHT22;62605;49.432;8.680;2022-09-09T11:48:59;21.90;99.90
10417;DHT22;62605;49.432;8.680;2022-09-09T11:51:29;22.20;99.90
10417;DHT22;62605;49.432;8.680;2022-09-09T11:53:58;22.50;99.90
10417;DHT22;62605;49.432;8.680;2022-09-09T11:56:29;22.50;99.90
10417;DHT22;62605;49.432;8.680;2022-09-09T11:59:00;22.40;99.90
10417;DHT22;62605;49.432;8.680;2022-09-09T12:01:37;22.70;99.90
10417;DHT22;62605;49.432;8.680;2022-09-09T12:04:26;22.80;99.90
10417;DHT22;62605;49.432;8.680;2022-09-09T12:06:59;23.10;99.90
10417;DHT22;62605;49.432;8.680;2022-09-09T12:09:44;23.40;99.90
10417;DHT22;62605;49.432;8.680;2022-09-09T12:12:25;23.20;99.90
10417;DHT22;62605;49.432;8.680;2022-09-09T12:15:19;23.50;99.90
10417;DHT22;62605;49.432;8.680;2022-09-09T12:17:48;23.40;99.90
10417;DHT22;62605;49.432;8.680;2022-09-09T12:20:19;23.30;99.90
10417;DHT22;62605;49.432;8.680;2022-09-09T12:23:03;23.40;99.90
10417;DHT22;62605;49.432;8.680;2022-09-09T12:25:43;23.30;99.90
10417;DHT22;62605;49.432;8.680;2022-09-09T12:28:18;22.80;99.90
10417;DHT22;62605;49.432;8.680;2022-09-09T12:30:52;23.00;99.90
10417;DHT22;62605;49.432;8.680;2022-09-09T12:33:22;23.20;99.90
10417;DHT22;62605;49.432;8.680;2022-09-09T12:35:54;23.60;99.90
10417;DHT22;62605;49.432;8.680;2022-09-09T12:38:34;23.80;99.90
10417;DHT22;62605;49.432;8.680;2022-09-09T12:41:02;24.10;99.90
10417;DHT22;62605;49.432;8.680;2022-09-09T12:43:30;24.50;99.90
10417;DHT22;62605;49.432;8.680;2022-09-09T12:45:59;23.70;99.90
10417;DHT22;62605;49.432;8.680;2022-09-09T12:48:34;23.70;99.90
10417;DHT22;62605;49.432;8.680;2022-09-09T12:51:16;23.90;99.90
10417;DHT22;62605;49.432;8.680;2022-09-09T12:53:46;23.90;99.90
10417;DHT22;62605;49.432;8.680;2022-09-09T12:56:19;23.40;99.90
10417;DHT22;62605;49.432;8.680;2022-09-09T12:58:50;22.90;99.90
10417;DHT22;62605;49.432;8.680;2022-09-09T13:01:22;23.00;99.90
10417;DHT22;62605;49.432;8.680;2022-09-09T13:03:50;22.90;99.90
10417;DHT22;62605;49.432;8.680;2022-09-09T13:06:21;22.90;99.90
10417;DHT22;62605;49.432;8.680;2022-09-09T13:08:51;23.20;99.90
10417;DHT22;62605;49.432;8.680;2022-09-09T13:11:22;23.20;99.90
10417;DHT22;62605;49.432;8.680;2022-09-09T13:13:52;23.20;99.90
10417;DHT22;62605;49.432;8.680;2022-09-09T13:16:22;22.70;99.90
10417;DHT22;62605;49.432;8.680;2022-09-09T13:18:49;22.20;99.90
10417;DHT22;62605;49.432;8.680;2022-09-09T13:21:17;22.00;99.90
10417;DHT22;62605;49.432;8.680;2022-09-09T13:23:49;21.70;99.90
10417;DHT22;62605;49.432;8.680;2022-09-09T13:26:24;21.60;99.90
10417;DHT22;62605;49.432;8.680;2022-09-09T13:28:52;21.40;99.90
10417;DHT22;62605;49.432;8.680;2022-09-09T13:31:22;21.30;99.90
10417;DHT22;62605;49.432;8.680;2022-09-09T13:33:51;21.20;99.90
10417;DHT22;62605;49.432;8.680;2022-09-09T13:36:29;21.00;99.90
10417;DHT22;62605;49.432;8.680;2022-09-09T13:38:59;20.60;99.90
10417;DHT22;62605;49.432;8.680;2022-09-09T13:41:32;20.10;99.90
10417;DHT22;62605;49.432;8.680;2022-09-09T13:44:00;19.80;99.90
10417;DHT22;62605;49.432;8.680;2022-09-09T13:46:34;19.60;99.90
10417;DHT22;62605;49.432;8.680;2022-09-09T13:49:18;19.30;99.90
10417;DHT22;62605;49.432;8.680;2022-09-09T13:51:48;18.80;99.90
10417;DHT22;62605;49.432;8.680;2022-09-09T13:54:17;18.60;99.90
10417;DHT22;62605;49.432;8.680;2022-09-09T13:56:46;18.70;99.90
10417;DHT22;62605;49.432;8.680;2022-09-09T13:59:17;18.80;99.90
10417;DHT22;62605;49.432;8.680;2022-09-09T14:01:45;18.90;99.90
10417;DHT22;62605;49.432;8.680;2022-09-09T14:04:14;19.40;99.90
10417;DHT22;62605;49.432;8.680;2022-09-09T14:06:43;19.60;99.90
10417;DHT22;62605;49.432;8.680;2022-09-09T14:09:12;19.80;99.90
10417;DHT22;62605;49.432;8.680;2022-09-09T14:11:40;19.70;99.90
10417;DHT22;62605;49.432;8.680;2022-09-09T14:14:09;19.70;99.90
10417;DHT22;62605;49.432;8.680;2022-09-09T14:16:37;20.00;99.90
10417;DHT22;62605;49.432;8.680;2022-09-09T14:19:04;20.60;99.90
10417;DHT22;62605;49.432;8.680;2022-09-09T14:21:31;21.20;99.90
10417;DHT22;62605;49.432;8.680;2022-09-09T14:23:59;21.30;99.90
10417;DHT22;62605;49.432;8.680;2022-09-09T14:26:27;21.80;99.90
10417;DHT22;62605;49.432;8.680;2022-09-09T14:28:55;21.90;99.90
10417;DHT22;62605;49.432;8.680;2022-09-09T14:31:25;21.70;99.90
10417;DHT22;62605;49.432;8.680;2022-09-09T14:33:52;21.90;99.90
10417;DHT22;62605;49.432;8.680;2022-09-09T14:36:20;21.90;99.90
10417;DHT22;62605;49.432;8.680;2022-09-09T14:38:47;21.70;99.90
10417;DHT22;62605;49.432;8.680;2022-09-09T14:41:16;21.60;99.90
10417;DHT22;62605;49.432;8.680;2022-09-09T14:43:44;21.30;99.90
10417;DHT22;62605;49.432;8.680;2022-09-09T14:46:13;21.30;99.90
10417;DHT22;62605;49.432;8.680;2022-09-09T14:48:42;21.00;99.90
10417;DHT22;62605;49.432;8.680;2022-09-09T14:51:12;20.80;99.90
10417;DHT22;62605;49.432;8.680;2022-09-09T14:53:42;20.70;99.90
10417;DHT22;62605;49.432;8.680;2022-09-09T14:56:11;20.50;99.90
10417;DHT22;62605;49.432;8.680;2022-09-09T14:58:38;20.40;99.90
10417;DHT22;62605;49.432;8.680;2022-09-09T15:01:07;20.30;99.90
10417;DHT22;62605;49.432;8.680;2022-09-09T15:03:35;20.10;99.90
10417;DHT22;62605;49.432;8.680;2022-09-09T15:06:07;20.00;99.90
10417;DHT22;62605;49.432;8.680;2022-09-09T15:08:35;20.00;99.90
10417;DHT22;62605;49.432;8.680;2022-09-09T15:11:03;19.90;99.90
10417;DHT22;62605;49.432;8.680;2022-09-09T15:13:31;19.80;99.90
10417;DHT22;62605;49.432;8.680;2022-09-09T15:16:04;19.80;99.90
10417;DHT22;62605;49.432;8.680;2022-09-09T15:18:31;19.70;99.90
10417;DHT22;62605;49.432;8.680;2022-09-09T15:20:59;19.70;99.90
10417;DHT22;62605;49.432;8.680;2022-09-09T15:23:31;19.70;99.90
10417;DHT22;62605;49.432;8.680;2022-09-09T15:25:58;19.60;99.90
10417;DHT22;62605;49.432;8.680;2022-09-09T15:28:25;19.60;99.90
10417;DHT22;62605;49.432;8.680;2022-09-09T15:30:53;19.50;99.90
10417;DHT22;62605;49.432;8.680;2022-09-09T15:33:22;19.40;99.90
10417;DHT22;62605;49.432;8.680;2022-09-09T15:35:49;19.10;99.90
10417;DHT22;62605;49.432;8.680;2022-09-09T15:38:17;18.80;99.90
10417;DHT22;62605;49.432;8.680;2022-09-09T15:40:53;18.50;99.90
10417;DHT22;62605;49.432;8.680;2022-09-09T15:43:21;17.90;99.90
10417;DHT22;62605;49.432;8.680;2022-09-09T15:45:53;17.60;99.90
10417;DHT22;62605;49.432;8.680;2022-09-09T15:48:30;17.00;99.90
10417;DHT22;62605;49.432;8.680;2022-09-09T15:51:01;16.90;99.90
10417;DHT22;62605;49.432;8.680;2022-09-09T15:53:29;16.80;99.90
10417;DHT22;62605;49.432;8.680;2022-09-09T15:55:59;17.00;99.90
10417;DHT22;62605;49.432;8.680;2022-09-09T15:58:29;17.40;99.90